This is the latest recevied weather packets stored in our database for station/object K8FJG-13. If no packets are shown the sender has not sent any weather packets the latest 10 day(s).
| Time | Temp. | Humidity | Pressure | Rain* | Wind** | Luminosity | Snow |
|---|---|---|---|---|---|---|---|
| 1777573292 | 8.89° C | 67% | 969.6 hPa | - | - | - | - |
| 1777572689 | 8.89° C | 69% | 969.6 hPa | - | - | - | - |
| 1777572086 | 9.44° C | 66% | 969.6 hPa | - | - | - | - |
| 1777571483 | 8.33° C | 68% | 969.5 hPa | - | - | - | - |
| 1777570879 | 7.78° C | 71% | 969.6 hPa | - | - | - | - |
| 1777570276 | 7.78° C | 71% | 969.8 hPa | - | - | - | - |
| 1777569673 | 6.67° C | 75% | 969.7 hPa | - | - | - | - |
| 1777569070 | 7.22° C | 74% | 969.7 hPa | - | - | - | - |
| 1777568467 | 7.22° C | 73% | 969.7 hPa | - | - | - | - |
| 1777567864 | 7.78° C | 71% | 969.6 hPa | - | - | - | - |
| 1777567261 | 8.33° C | 70% | 969.5 hPa | - | - | - | - |
| 1777566657 | 8.33° C | 71% | 969.6 hPa | - | - | - | - |
| 1777566054 | 7.78° C | 71% | 969.7 hPa | - | - | - | - |
| 1777565451 | 7.22° C | 73% | 969.5 hPa | - | - | - | - |
| 1777564848 | 7.22° C | 74% | 969.6 hPa | - | - | - | - |
| 1777564245 | 6.67° C | 74% | 969.6 hPa | - | - | - | - |
| 1777563642 | 7.22° C | 75% | 969.5 hPa | - | - | - | - |
| 1777563039 | 6.67° C | 78% | 969.5 hPa | - | - | - | - |
| 1777562436 | 6.67° C | 79% | 969.4 hPa | - | - | - | - |
| 1777561833 | 6.67° C | 80% | 969.3 hPa | - | - | - | - |
| 1777561229 | 6.67° C | 79% | 969.3 hPa | - | - | - | - |
| 1777560626 | 6.11° C | 80% | 969 hPa | - | - | - | - |
| 1777560023 | 6.11° C | 81% | 968.9 hPa | - | - | - | - |
| 1777559420 | 6.11° C | 80% | 968.7 hPa | - | - | - | - |
| 1777558817 | 6.11° C | 81% | 968.5 hPa | - | - | - | - |
* Rain since midnight (hover to see other rain measurements)
** Current wind speed in m/s (hover to see current wind gust speed)